Time;durP1;ratioP1;P1;durP2;ratioP2;P2;SDS_P1;SDS_P2;PMS_P1;PMS_P2;Temp;Humidity;BMP_temperature;BMP_pressure;BME280_temperature;BME280_humidity;BME280_pressure;Samples;Min_cycle;Max_cycle;Signal;HPM_P1;HPM_P2
2023/03/26 00:01:35;;;;;;;5.40;2.78;;;13.50;42.10;;;;;;5015118;28;20178;-49
2023/03/26 00:04:02;;;;;;;7.85;2.13;;;13.60;42.00;;;;;;5015235;28;20178;-49
2023/03/26 00:06:33;;;;;;;2.28;1.50;;;13.60;42.10;;;;;;5015058;28;20691;-49
2023/03/26 00:08:59;;;;;;;3.58;2.15;;;13.60;41.70;;;;;;5015425;28;20233;-49
2023/03/26 00:11:27;;;;;;;2.47;1.67;;;13.50;42.10;;;;;;5014957;28;20214;-49
2023/03/26 00:13:55;;;;;;;2.95;1.48;;;13.30;42.00;;;;;;5014893;28;20292;-49
2023/03/26 00:16:22;;;;;;;2.60;1.80;;;13.30;42.00;;;;;;5013509;28;20726;-49
2023/03/26 00:18:50;;;;;;;7.15;2.15;;;13.20;42.10;;;;;;5014971;28;20733;-50
2023/03/26 00:21:21;;;;;;;2.30;1.02;;;13.20;42.40;;;;;;5014882;28;20936;-49
2023/03/26 00:23:48;;;;;;;3.88;1.65;;;13.10;41.90;;;;;;5015005;28;20163;-49
2023/03/26 00:26:16;;;;;;;5.07;2.08;;;13.10;42.30;;;;;;5014627;28;20210;-49
2023/03/26 00:28:42;;;;;;;3.33;1.58;;;13.10;42.20;;;;;;5014922;28;20602;-49
2023/03/26 00:31:11;;;;;;;3.35;1.50;;;13.00;41.90;;;;;;5014725;28;20182;-49
2023/03/26 00:33:39;;;;;;;2.75;1.20;;;12.90;42.60;;;;;;5014573;28;20195;-49
2023/03/26 00:36:16;;;;;;;2.13;1.42;;;12.80;42.80;;;;;;5014503;28;20209;-50
2023/03/26 00:38:43;;;;;;;2.83;1.50;;;12.80;42.40;;;;;;5014763;28;20194;-49
2023/03/26 00:41:23;;;;;;;6.72;1.95;;;12.80;42.40;;;;;;5013675;28;20179;-49
2023/03/26 00:43:55;;;;;;;4.10;2.42;;;12.80;42.40;;;;;;5014442;28;20167;-49
2023/03/26 00:46:21;;;;;;;5.72;1.48;;;12.70;43.50;;;;;;5014200;28;20171;-49
2023/03/26 00:48:47;;;;;;;2.38;1.58;;;12.60;42.50;;;;;;5014198;28;20265;-49
2023/03/26 00:51:15;;;;;;;5.00;1.50;;;12.60;42.50;;;;;;5014283;28;20263;-49
2023/03/26 00:53:42;;;;;;;3.03;1.85;;;12.70;42.40;;;;;;5014316;28;20206;-49
2023/03/26 00:56:08;;;;;;;2.80;1.25;;;12.70;42.00;;;;;;5014191;28;20253;-49
2023/03/26 00:58:34;;;;;;;2.42;1.45;;;12.60;42.20;;;;;;5014120;28;20191;-49
2023/03/26 01:01:04;;;;;;;2.77;1.60;;;12.60;41.90;;;;;;5014379;28;20533;-49
2023/03/26 01:03:33;;;;;;;8.32;1.60;;;12.70;42.20;;;;;;5014047;28;20166;-49
2023/03/26 01:06:06;;;;;;;2.33;1.00;;;12.80;41.90;;;;;;5013949;28;20689;-49
2023/03/26 01:08:40;;;;;;;4.07;1.83;;;12.70;41.90;;;;;;5013853;28;20285;-48
2023/03/26 01:11:16;;;;;;;3.72;1.52;;;12.70;42.00;;;;;;5014177;28;20190;-50
2023/03/26 01:14:00;;;;;;;2.90;1.67;;;12.70;42.20;;;;;;5014034;28;20324;-49
2023/03/26 01:16:43;;;;;;;3.15;1.30;;;12.70;42.30;;;;;;5013968;28;20159;-49
2023/03/26 01:19:28;;;;;;;2.60;1.73;;;12.70;41.70;;;;;;5013791;28;20562;-49
2023/03/26 01:21:54;;;;;;;4.32;1.52;;;12.60;43.10;;;;;;5013759;28;20177;-49
2023/03/26 01:24:21;;;;;;;2.25;1.48;;;12.70;43.10;;;;;;5013579;28;20175;-49
2023/03/26 01:26:53;;;;;;;4.28;1.90;;;12.90;42.90;;;;;;5013335;28;20317;-49
2023/03/26 01:29:31;;;;;;;3.33;1.27;;;13.00;42.70;;;;;;5013518;28;20281;-49
2023/03/26 01:32:08;;;;;;;3.20;1.83;;;13.10;43.00;;;;;;5013922;28;20177;-49
2023/03/26 01:34:41;;;;;;;5.45;2.60;;;13.00;42.80;;;;;;5013582;28;20183;-49
2023/03/26 01:37:45;;;;;;;2.17;1.73;;;13.00;42.90;;;;;;5013271;28;20174;-49
2023/03/26 01:40:24;;;;;;;2.70;1.33;;;13.00;42.90;;;;;;4991415;28;20209;-49
2023/03/26 01:42:59;;;;;;;3.22;1.50;;;12.90;43.00;;;;;;4991381;28;20213;-49
2023/03/26 01:45:30;;;;;;;1.75;1.10;;;12.90;42.90;;;;;;4991470;28;20190;-50
2023/03/26 01:47:57;;;;;;;3.75;1.50;;;12.90;42.80;;;;;;4991047;28;20639;-48
2023/03/26 01:50:23;;;;;;;2.17;1.05;;;12.90;42.30;;;;;;4991331;28;20654;-48
2023/03/26 01:52:48;;;;;;;1.47;1.07;;;12.60;42.70;;;;;;4991088;28;20179;-48
2023/03/26 01:55:14;;;;;;;2.70;1.50;;;12.60;42.90;;;;;;4991218;28;20183;-49
2023/03/26 01:58:02;;;;;;;4.50;1.10;;;12.70;42.50;;;;;;4990842;28;20198;-48
2023/03/26 02:00:32;;;;;;;3.42;1.50;;;12.70;42.30;;;;;;4991199;28;20421;-50
2023/03/26 02:03:16;;;;;;;2.45;1.40;;;12.60;42.20;;;;;;4991047;28;20179;-48
2023/03/26 02:06:10;;;;;;;2.00;1.80;;;12.50;42.50;;;;;;4990967;28;20637;-50
2023/03/26 02:08:45;;;;;;;2.83;1.30;;;12.60;42.10;;;;;;4990963;28;20206;-48
2023/03/26 02:11:14;;;;;;;2.30;0.95;;;12.50;42.50;;;;;;4991027;28;20274;-50
2023/03/26 02:13:42;;;;;;;4.43;1.30;;;12.30;43.20;;;;;;4997277;28;20275;-48
2023/03/26 02:16:15;;;;;;;4.45;1.42;;;12.30;42.90;;;;;;5012588;28;20236;-48
2023/03/26 02:18:42;;;;;;;2.55;1.38;;;12.40;42.80;;;;;;5012755;28;20183;-50
2023/03/26 02:21:19;;;;;;;1.30;0.80;;;12.40;42.50;;;;;;5012724;28;20178;-50
2023/03/26 02:23:46;;;;;;;2.92;1.10;;;12.50;42.50;;;;;;5012968;28;20523;-48
2023/03/26 02:26:15;;;;;;;2.15;1.45;;;12.50;42.30;;;;;;5012336;28;20590;-48
2023/03/26 02:28:40;;;;;;;1.92;1.13;;;12.50;42.60;;;;;;5012407;28;20197;-50
2023/03/26 02:31:09;;;;;;;3.57;1.80;;;12.50;42.40;;;;;;5012758;28;20182;-50
2023/03/26 02:33:36;;;;;;;2.08;1.23;;;12.60;42.50;;;;;;5012493;28;20201;-48
2023/03/26 02:36:03;;;;;;;1.80;1.40;;;12.60;42.80;;;;;;5012660;28;20618;-50
2023/03/26 02:38:33;;;;;;;5.93;1.80;;;12.50;42.80;;;;;;5012332;28;20218;-48
2023/03/26 02:41:00;;;;;;;2.60;1.00;;;12.50;42.90;;;;;;5012458;28;20190;-48
2023/03/26 02:43:26;;;;;;;3.25;1.05;;;12.40;43.50;;;;;;5012373;28;20174;-50
2023/03/26 02:45:52;;;;;;;2.53;0.93;;;12.30;43.50;;;;;;5012383;28;20182;-50
2023/03/26 02:48:19;;;;;;;1.87;1.17;;;12.30;43.50;;;;;;5012109;28;20445;-48
2023/03/26 02:50:45;;;;;;;2.22;1.25;;;12.20;44.00;;;;;;5012379;28;20405;-48
2023/03/26 02:53:12;;;;;;;3.80;1.10;;;12.00;44.90;;;;;;5012251;28;20202;-50
2023/03/26 02:55:38;;;;;;;2.08;1.00;;;12.10;44.80;;;;;;5012283;28;20656;-50
2023/03/26 02:58:05;;;;;;;4.07;1.23;;;12.30;44.50;;;;;;5011881;28;20194;-47
2023/03/26 03:00:32;;;;;;;3.63;1.10;;;12.30;44.40;;;;;;5012428;28;20190;-50
2023/03/26 03:02:58;;;;;;;1.85;0.90;;;12.20;45.00;;;;;;5012915;28;20188;-49
2023/03/26 03:05:31;;;;;;;3.20;1.00;;;12.20;46.20;;;;;;5016403;28;20174;-48
2023/03/26 03:07:58;;;;;;;5.70;1.08;;;12.20;45.60;;;;;;5016080;28;20421;-50
2023/03/26 03:10:31;;;;;;;1.95;1.30;;;12.10;45.70;;;;;;5016198;28;20173;-50
2023/03/26 03:12:58;;;;;;;8.60;1.98;;;12.20;45.50;;;;;;5016522;28;20189;-48
2023/03/26 03:15:24;;;;;;;6.55;1.50;;;12.20;45.40;;;;;;5016324;28;20175;-50
2023/03/26 03:17:50;;;;;;;1.95;1.08;;;12.30;45.30;;;;;;5015807;28;20193;-47
2023/03/26 03:20:16;;;;;;;3.20;1.13;;;12.40;44.80;;;;;;5015934;28;20182;-50
2023/03/26 03:22:42;;;;;;;3.72;1.02;;;12.40;44.90;;;;;;5015989;28;20421;-50
2023/03/26 03:25:13;;;;;;;2.38;1.02;;;12.50;44.80;;;;;;5015643;28;20268;-47
2023/03/26 03:27:41;;;;;;;3.15;1.25;;;12.50;44.90;;;;;;5015864;28;20191;-47
2023/03/26 03:30:08;;;;;;;3.33;1.45;;;12.40;45.20;;;;;;5016006;28;20210;-50
2023/03/26 03:32:34;;;;;;;2.63;1.00;;;12.40;45.40;;;;;;5015835;28;20640;-49
2023/03/26 03:34:59;;;;;;;2.07;0.93;;;12.30;45.90;;;;;;5015934;28;20212;-50
2023/03/26 03:37:25;;;;;;;7.43;1.50;;;12.30;46.30;;;;;;5015654;28;20437;-49
2023/03/26 03:39:51;;;;;;;3.07;1.60;;;12.30;45.80;;;;;;5015680;28;20409;-49
2023/03/26 03:42:17;;;;;;;4.13;1.30;;;12.30;45.50;;;;;;5015570;28;20416;-49
2023/03/26 03:44:43;;;;;;;4.13;1.20;;;12.30;45.60;;;;;;5015694;28;20428;-49
2023/03/26 03:47:12;;;;;;;3.73;1.60;;;12.30;45.50;;;;;;5015381;28;20190;-49
2023/03/26 03:49:38;;;;;;;6.07;1.30;;;12.30;45.70;;;;;;5015409;28;20508;-49
2023/03/26 03:52:04;;;;;;;8.85;1.33;;;12.20;46.10;;;;;;5015397;28;20189;-49
2023/03/26 03:54:30;;;;;;;2.90;1.20;;;12.40;45.40;;;;;;5015540;28;20202;-49
2023/03/26 03:56:56;;;;;;;4.90;1.77;;;12.30;45.20;;;;;;5015131;28;20981;-49
2023/03/26 03:59:22;;;;;;;2.30;0.93;;;12.30;45.50;;;;;;5015509;28;20575;-50
2023/03/26 04:01:49;;;;;;;3.53;1.43;;;12.30;45.40;;;;;;5015448;28;20659;-49
2023/03/26 04:04:16;;;;;;;3.85;1.35;;;12.30;45.10;;;;;;5015103;28;20990;-49
2023/03/26 04:06:41;;;;;;;3.55;1.75;;;12.40;44.70;;;;;;5014988;28;20179;-49
2023/03/26 04:09:09;;;;;;;4.80;1.40;;;12.50;44.50;;;;;;5015099;28;20609;-50
2023/03/26 04:11:35;;;;;;;6.00;1.92;;;12.40;44.50;;;;;;5015240;28;20543;-50
2023/03/26 04:14:01;;;;;;;2.40;1.73;;;12.30;44.80;;;;;;5014764;28;20212;-50
2023/03/26 04:16:27;;;;;;;3.70;1.60;;;12.30;45.00;;;;;;5013765;28;20662;-50
2023/03/26 04:18:53;;;;;;;6.77;1.90;;;12.30;44.70;;;;;;5015180;28;20198;-49
2023/03/26 04:21:19;;;;;;;2.43;1.40;;;12.40;44.40;;;;;;5014830;28;20413;-50
2023/03/26 04:23:46;;;;;;;4.53;1.58;;;12.50;44.30;;;;;;5015228;28;20178;-50
2023/03/26 04:26:17;;;;;;;2.80;1.50;;;12.60;44.10;;;;;;5014598;28;20201;-49
2023/03/26 04:28:53;;;;;;;3.08;1.13;;;12.60;44.00;;;;;;5014887;28;20230;-49
2023/03/26 04:31:23;;;;;;;2.15;1.40;;;12.50;44.10;;;;;;5014777;28;20193;-50
2023/03/26 04:33:53;;;;;;;2.72;1.73;;;12.50;44.20;;;;;;5014529;28;20191;-50
2023/03/26 04:36:25;;;;;;;2.58;1.55;;;12.40;44.40;;;;;;5014509;28;20175;-49
2023/03/26 04:38:52;;;;;;;2.40;1.40;;;12.30;44.80;;;;;;5014536;28;20202;-49
2023/03/26 04:41:21;;;;;;;3.05;1.45;;;12.30;44.60;;;;;;5014555;28;20185;-50
2023/03/26 04:43:49;;;;;;;6.40;1.45;;;12.40;44.40;;;;;;5014751;28;20179;-50
2023/03/26 04:46:20;;;;;;;3.35;1.45;;;12.50;44.30;;;;;;5014105;28;20186;-50
2023/03/26 04:48:47;;;;;;;1.95;1.30;;;12.50;44.10;;;;;;5014288;28;20225;-49
2023/03/26 04:51:16;;;;;;;3.38;1.80;;;12.60;43.90;;;;;;5014496;28;20202;-50
2023/03/26 04:53:58;;;;;;;5.70;2.22;;;12.60;43.80;;;;;;5014308;28;20205;-50
2023/03/26 04:56:42;;;;;;;2.33;1.27;;;12.50;43.80;;;;;;5014035;28;20228;-47
2023/03/26 04:59:13;;;;;;;2.72;1.85;;;12.60;43.80;;;;;;5014070;28;20190;-47
2023/03/26 05:01:40;;;;;;;4.03;1.67;;;12.50;43.80;;;;;;5014422;28;20165;-47
2023/03/26 05:04:06;;;;;;;5.82;1.80;;;12.50;43.90;;;;;;5014379;28;20174;-50
2023/03/26 05:06:33;;;;;;;3.90;1.63;;;12.50;44.10;;;;;;5013782;28;20189;-50
2023/03/26 05:09:02;;;;;;;5.68;1.92;;;12.50;44.10;;;;;;5014176;28;20602;-47
2023/03/26 05:11:27;;;;;;;3.90;1.48;;;12.50;43.90;;;;;;5013998;28;20229;-50
2023/03/26 05:13:53;;;;;;;2.37;1.43;;;12.60;43.50;;;;;;5013841;28;20713;-48
2023/03/26 05:16:20;;;;;;;3.23;1.70;;;12.60;43.60;;;;;;5013664;28;20410;-50
2023/03/26 05:18:46;;;;;;;3.65;1.70;;;12.60;43.30;;;;;;5013975;28;20575;-50
2023/03/26 05:21:12;;;;;;;2.47;1.40;;;12.70;43.30;;;;;;5014054;28;20175;-49
2023/03/26 05:23:37;;;;;;;2.50;1.20;;;12.60;43.10;;;;;;5013693;28;20413;-49
2023/03/26 05:26:03;;;;;;;5.43;1.67;;;12.60;43.30;;;;;;5013065;28;20195;-51
2023/03/26 05:28:29;;;;;;;4.07;1.30;;;12.60;43.20;;;;;;5012219;28;20194;-48
2023/03/26 05:30:55;;;;;;;2.67;1.43;;;12.70;43.20;;;;;;5014039;28;20413;-50
2023/03/26 05:33:21;;;;;;;2.60;1.60;;;12.80;42.90;;;;;;5013592;28;20222;-49
2023/03/26 05:35:57;;;;;;;4.72;1.88;;;12.80;42.70;;;;;;5013807;28;20398;-50
2023/03/26 05:38:22;;;;;;;3.30;2.05;;;12.80;42.60;;;;;;5013322;28;20205;-51
2023/03/26 05:40:48;;;;;;;3.40;1.90;;;12.70;42.80;;;;;;5013925;28;20178;-48
2023/03/26 05:43:14;;;;;;;3.10;1.30;;;12.70;42.80;;;;;;5013829;28;20174;-51
2023/03/26 05:45:39;;;;;;;2.30;1.17;;;12.70;42.80;;;;;;5013401;28;20659;-49
2023/03/26 05:48:05;;;;;;;3.90;1.63;;;12.60;42.80;;;;;;5013035;28;20190;-49
2023/03/26 05:50:31;;;;;;;4.90;2.73;;;12.70;42.80;;;;;;5013323;28;20646;-51
2023/03/26 05:52:57;;;;;;;6.97;1.60;;;12.70;42.60;;;;;;5012986;28;20177;-50
2023/03/26 05:55:22;;;;;;;2.03;1.83;;;12.70;42.60;;;;;;5013366;28;20167;-49
2023/03/26 05:57:48;;;;;;;3.43;1.77;;;12.70;42.80;;;;;;5012846;28;20241;-49
2023/03/26 06:00:14;;;;;;;4.53;2.03;;;12.80;42.60;;;;;;5013037;28;20539;-51
2023/03/26 06:02:41;;;;;;;5.20;1.98;;;12.80;42.40;;;;;;5011731;28;20670;-48
2023/03/26 06:05:08;;;;;;;5.55;1.40;;;12.80;42.40;;;;;;5012877;28;20179;-48
2023/03/26 06:07:35;;;;;;;4.88;1.58;;;12.80;42.30;;;;;;5012502;28;20199;-51
2023/03/26 06:10:01;;;;;;;3.83;2.00;;;12.90;42.40;;;;;;5012839;28;20178;-48
2023/03/26 06:12:27;;;;;;;2.53;1.65;;;13.00;42.40;;;;;;5012842;28;20690;-49
2023/03/26 06:14:53;;;;;;;6.77;1.90;;;13.00;42.30;;;;;;5012872;28;20214;-50
2023/03/26 06:17:18;;;;;;;3.23;2.00;;;13.00;42.10;;;;;;5012622;28;20195;-49
2023/03/26 06:19:44;;;;;;;3.90;1.70;;;12.90;42.10;;;;;;5013006;28;20682;-48
2023/03/26 06:22:11;;;;;;;7.83;2.20;;;13.00;41.90;;;;;;5012679;28;20181;-51
2023/03/26 06:24:36;;;;;;;3.20;1.33;;;13.00;41.80;;;;;;5012625;28;20550;-50
2023/03/26 06:27:02;;;;;;;1.93;1.13;;;13.00;42.20;;;;;;5012322;28;20200;-48
2023/03/26 06:29:28;;;;;;;2.28;1.75;;;13.10;42.50;;;;;;5012754;28;20262;-50
2023/03/26 06:31:54;;;;;;;3.00;1.57;;;13.10;42.50;;;;;;5012674;28;20257;-49
2023/03/26 06:34:20;;;;;;;6.70;2.47;;;13.20;42.10;;;;;;5012499;28;20201;-50
2023/03/26 06:36:47;;;;;;;4.80;1.43;;;13.20;41.80;;;;;;5012477;28;20682;-51
2023/03/26 06:39:14;;;;;;;3.85;2.22;;;13.20;41.70;;;;;;5011961;28;20417;-48
2023/03/26 06:41:40;;;;;;;3.60;1.20;;;13.20;41.70;;;;;;5012465;28;20178;-48
2023/03/26 06:44:05;;;;;;;3.00;1.60;;;13.40;41.60;;;;;;5012668;28;20182;-50
2023/03/26 06:46:31;;;;;;;2.80;1.20;;;13.40;41.10;;;;;;5012192;28;20921;-48
2023/03/26 06:48:58;;;;;;;1.90;1.37;;;13.40;41.60;;;;;;5012301;28;20190;-50
2023/03/26 06:51:24;;;;;;;6.80;1.77;;;13.20;41.30;;;;;;5012172;28;20182;-51
2023/03/26 06:53:50;;;;;;;2.95;1.92;;;13.30;42.00;;;;;;5012218;28;20672;-49
2023/03/26 06:56:16;;;;;;;3.57;1.43;;;13.30;41.60;;;;;;5012040;28;20258;-50
2023/03/26 06:58:41;;;;;;;3.00;1.77;;;13.30;41.70;;;;;;5012251;28;20430;-49
2023/03/26 07:01:07;;;;;;;7.17;3.23;;;13.30;41.80;;;;;;5012324;28;20504;-49
2023/03/26 07:03:33;;;;;;;2.00;1.33;;;13.40;41.30;;;;;;5012246;28;20236;-52
2023/03/26 07:05:59;;;;;;;5.53;2.70;;;13.40;41.00;;;;;;5012255;28;20650;-49
2023/03/26 07:08:25;;;;;;;2.17;1.50;;;13.50;41.80;;;;;;5011988;28;20198;-49
2023/03/26 07:10:50;;;;;;;3.73;1.77;;;13.50;41.70;;;;;;5012236;28;20421;-49
2023/03/26 07:13:16;;;;;;;2.67;1.97;;;13.50;41.30;;;;;;5012057;28;20977;-51
2023/03/26 07:15:42;;;;;;;4.37;1.50;;;13.60;40.70;;;;;;5012171;28;20190;-48
2023/03/26 07:18:07;;;;;;;2.43;1.40;;;13.60;41.00;;;;;;5011844;28;20253;-50
2023/03/26 07:20:33;;;;;;;4.10;1.60;;;13.60;40.60;;;;;;5011969;28;20174;-49
2023/03/26 07:22:59;;;;;;;3.30;2.03;;;13.50;40.80;;;;;;5012348;28;20174;-48
2023/03/26 07:25:25;;;;;;;2.28;1.25;;;13.40;41.20;;;;;;5012110;28;20458;-51
2023/03/26 07:28:19;;;;;;;5.03;3.27;;;13.50;41.60;;;;;;5010523;28;20253;-49
2023/03/26 07:31:03;;;;;;;5.03;2.25;;;13.70;40.80;;;;;;5012232;28;20472;-52
2023/03/26 07:33:52;;;;;;;4.78;1.73;;;14.00;40.70;;;;;;5012065;28;20283;-49
2023/03/26 07:36:39;;;;;;;3.13;1.50;;;14.10;40.20;;;;;;5011728;28;20201;-51
2023/03/26 07:39:49;;;;;;;3.15;1.85;;;14.20;39.50;;;;;;5011775;28;20252;-48
2023/03/26 07:42:46;;;;;;;3.45;1.25;;;14.30;38.90;;;;;;4989843;28;20266;-51
2023/03/26 07:45:43;;;;;;;8.57;2.67;;;14.40;39.00;;;;;;4989943;28;20171;-48
2023/03/26 07:48:24;;;;;;;5.45;1.95;;;14.40;39.20;;;;;;4981693;28;20214;-51
2023/03/26 07:50:50;;;;;;;2.65;1.70;;;14.30;38.30;;;;;;4993099;28;20199;-48
2023/03/26 07:53:16;;;;;;;2.80;1.42;;;14.40;38.90;;;;;;4993359;28;20210;-51
2023/03/26 07:55:52;;;;;;;2.03;1.40;;;14.30;38.90;;;;;;4993398;28;20259;-48
2023/03/26 07:58:55;;;;;;;4.95;1.80;;;14.30;38.20;;;;;;4993193;28;20245;-51
2023/03/26 08:01:55;;;;;;;2.55;1.50;;;14.30;38.40;;;;;;4993425;28;20167;-48
2023/03/26 08:04:48;;;;;;;3.70;1.52;;;14.20;38.60;;;;;;4993117;28;20210;-48
2023/03/26 08:07:31;;;;;;;5.55;2.38;;;14.20;39.30;;;;;;4993004;28;20194;-48
2023/03/26 08:10:14;;;;;;;3.70;1.75;;;14.40;39.10;;;;;;4993233;28;20269;-51
2023/03/26 08:12:52;;;;;;;5.03;1.88;;;14.50;38.50;;;;;;5000933;28;20300;-50
2023/03/26 08:15:28;;;;;;;3.25;2.30;;;14.50;38.70;;;;;;5015117;28;20210;-48
2023/03/26 08:18:17;;;;;;;5.82;2.10;;;14.50;38.60;;;;;;5014742;28;20269;-51
2023/03/26 08:20:53;;;;;;;3.88;2.28;;;14.50;38.70;;;;;;5014843;28;20179;-48
2023/03/26 08:23:33;;;;;;;3.53;1.85;;;14.40;38.30;;;;;;5015165;28;20190;-48
2023/03/26 08:26:05;;;;;;;3.97;1.85;;;14.40;38.70;;;;;;5014630;28;20705;-48
2023/03/26 08:29:03;;;;;;;3.45;1.73;;;14.40;38.60;;;;;;5014666;28;20194;-50
2023/03/26 08:31:38;;;;;;;9.40;3.90;;;14.50;37.90;;;;;;5006963;28;20182;-47
2023/03/26 08:34:04;;;;;;;6.05;2.47;;;14.40;38.10;;;;;;5014884;28;20194;-50
2023/03/26 08:36:30;;;;;;;3.45;1.90;;;14.30;38.50;;;;;;5014544;28;20183;-50
2023/03/26 08:38:58;;;;;;;6.55;2.33;;;14.30;38.20;;;;;;5014533;28;20202;-49
2023/03/26 08:41:45;;;;;;;4.05;1.63;;;14.30;38.00;;;;;;5014546;28;20179;-50
2023/03/26 08:44:24;;;;;;;4.88;2.10;;;14.30;38.10;;;;;;5014716;28;20174;-48
2023/03/26 08:47:12;;;;;;;3.95;1.90;;;14.30;38.00;;;;;;5014267;28;20647;-50
2023/03/26 08:50:08;;;;;;;6.20;1.65;;;14.40;38.10;;;;;;5014641;28;20163;-50
2023/03/26 08:53:12;;;;;;;6.32;2.35;;;14.40;38.00;;;;;;5014668;28;20265;-51
2023/03/26 08:56:16;;;;;;;4.00;2.10;;;14.40;38.10;;;;;;5014221;28;20218;-50
2023/03/26 08:58:56;;;;;;;3.25;2.20;;;14.40;38.20;;;;;;5012964;28;20579;-48
2023/03/26 09:01:54;;;;;;;3.10;2.05;;;14.40;37.80;;;;;;5013502;28;20582;-50
2023/03/26 09:04:38;;;;;;;4.13;2.38;;;14.40;38.00;;;;;;5009220;28;20174;-48
2023/03/26 09:07:40;;;;;;;11.00;2.67;;;14.40;38.00;;;;;;5013949;28;20685;-49
2023/03/26 09:10:09;;;;;;;2.72;2.00;;;14.60;38.00;;;;;;5014173;28;20232;-50
2023/03/26 09:12:38;;;;;;;5.10;2.60;;;14.60;38.20;;;;;;5014083;28;20167;-48
2023/03/26 09:15:30;;;;;;;6.28;2.20;;;14.60;37.50;;;;;;5013727;28;20274;-50
2023/03/26 09:18:17;;;;;;;6.00;2.35;;;14.60;37.40;;;;;;5013261;28;20249;-48
2023/03/26 09:21:04;;;;;;;4.35;1.85;;;14.60;37.70;;;;;;5014125;28;20162;-49
2023/03/26 09:23:51;;;;;;;4.47;2.10;;;14.70;37.10;;;;;;5013983;28;20189;-51
2023/03/26 09:26:34;;;;;;;9.70;2.25;;;14.70;37.00;;;;;;5013244;28;20631;-50
2023/03/26 09:29:06;;;;;;;4.28;2.10;;;14.60;37.50;;;;;;5013684;28;20746;-48
2023/03/26 09:31:56;;;;;;;6.90;3.25;;;14.70;37.60;;;;;;5013644;28;20253;-51
2023/03/26 09:34:40;;;;;;;3.60;2.35;;;14.90;37.60;;;;;;5013577;28;20221;-48
2023/03/26 09:37:39;;;;;;;6.72;2.60;;;15.00;37.60;;;;;;5013444;28;20171;-50
2023/03/26 09:40:15;;;;;;;3.30;1.83;;;15.10;37.00;;;;;;5013403;28;20282;-48
2023/03/26 09:43:16;;;;;;;3.45;2.30;;;15.20;36.30;;;;;;5013765;28;20228;-48
2023/03/26 09:46:17;;;;;;;3.83;2.47;;;15.30;36.50;;;;;;5013372;28;20163;-51
2023/03/26 09:49:26;;;;;;;3.83;2.00;;;15.30;35.70;;;;;;4991201;28;20198;-48
2023/03/26 09:51:55;;;;;;;2.25;1.85;;;15.30;35.40;;;;;;5010885;28;20216;-49
2023/03/26 09:54:36;;;;;;;3.90;2.03;;;15.50;36.20;;;;;;5012876;28;20563;-48
2023/03/26 09:57:27;;;;;;;3.72;1.83;;;15.80;36.20;;;;;;5013149;28;20163;-50
2023/03/26 10:00:09;;;;;;;5.10;1.75;;;16.00;35.40;;;;;;5012981;28;20189;-48
2023/03/26 10:03:07;;;;;;;6.38;2.20;;;16.20;33.40;;;;;;5013270;28;20146;-51
2023/03/26 10:05:33;;;;;;;4.53;1.60;;;16.30;33.50;;;;;;5013326;28;20203;-48
2023/03/26 10:08:05;;;;;;;6.43;1.80;;;16.40;33.50;;;;;;5012692;28;20195;-50
2023/03/26 10:10:58;;;;;;;4.38;1.90;;;16.50;33.90;;;;;;5012954;28;20403;-50
2023/03/26 10:13:43;;;;;;;4.53;2.20;;;16.70;33.40;;;;;;5012975;28;20198;-48
2023/03/26 10:16:12;;;;;;;2.67;1.85;;;16.80;31.30;;;;;;5012718;28;20171;-48
2023/03/26 10:18:41;;;;;;;6.22;2.28;;;16.90;32.30;;;;;;5013025;28;20205;-50
2023/03/26 10:21:22;;;;;;;3.60;2.20;;;16.90;31.90;;;;;;5013003;28;20173;-51
2023/03/26 10:24:23;;;;;;;9.10;2.55;;;17.00;32.40;;;;;;5012994;28;20522;-48
2023/03/26 10:27:06;;;;;;;2.47;1.88;;;17.00;31.80;;;;;;5009153;28;20204;-50
2023/03/26 10:30:05;;;;;;;5.38;2.13;;;17.00;30.50;;;;;;5012691;28;20689;-48
2023/03/26 10:32:44;;;;;;;3.25;2.05;;;17.10;31.60;;;;;;5012651;28;20189;-48
2023/03/26 10:35:40;;;;;;;11.30;2.10;;;17.30;31.30;;;;;;5012464;28;20254;-50
2023/03/26 10:38:21;;;;;;;5.25;2.85;;;17.40;29.80;;;;;;5012224;28;20285;-48
2023/03/26 10:41:04;;;;;;;3.17;2.10;;;17.30;30.40;;;;;;5012725;28;20193;-49
2023/03/26 10:43:48;;;;;;;3.55;2.33;;;17.30;30.90;;;;;;5012577;28;20309;-51
2023/03/26 10:46:34;;;;;;;3.80;2.00;;;17.40;30.60;;;;;;5012347;28;20186;-49
2023/03/26 10:49:13;;;;;;;5.47;1.60;;;17.60;30.20;;;;;;5012443;28;20205;-51
2023/03/26 10:51:42;;;;;;;4.53;2.00;;;17.90;29.30;;;;;;5012400;28;20631;-48
2023/03/26 10:54:24;;;;;;;3.47;1.95;;;18.00;30.40;;;;;;5012193;28;20208;-51
2023/03/26 10:56:50;;;;;;;6.30;2.28;;;18.40;29.20;;;;;;5012093;28;20172;-49
2023/03/26 10:59:17;;;;;;;4.85;1.85;;;18.70;28.90;;;;;;5012538;28;20201;-48
2023/03/26 11:01:55;;;;;;;2.17;1.80;;;19.10;29.50;;;;;;5012204;28;20163;-52
2023/03/26 11:04:50;;;;;;;5.18;1.92;;;19.50;25.80;;;;;;5012343;28;20186;-48
2023/03/26 11:07:35;;;;;;;3.30;1.88;;;19.40;25.30;;;;;;5011914;28;20163;-50
2023/03/26 11:10:23;;;;;;;2.28;1.60;;;19.40;26.60;;;;;;5012179;28;20674;-50
2023/03/26 11:13:15;;;;;;;4.13;1.50;;;19.20;25.30;;;;;;5012150;28;20212;-49
2023/03/26 11:15:48;;;;;;;3.95;1.83;;;19.10;27.20;;;;;;5012042;28;20225;-49
2023/03/26 11:18:37;;;;;;;2.90;1.55;;;19.10;27.50;;;;;;5012009;28;20587;-51
2023/03/26 11:21:25;;;;;;;6.63;2.00;;;19.20;28.10;;;;;;5012231;28;20179;-48
2023/03/26 11:24:21;;;;;;;2.90;1.70;;;19.20;28.10;;;;;;5012190;28;20179;-50
2023/03/26 11:27:19;;;;;;;3.00;2.10;;;19.10;27.20;;;;;;5015628;28;20186;-50
2023/03/26 11:30:14;;;;;;;5.63;1.98;;;18.90;26.10;;;;;;5015934;28;20269;-50
2023/03/26 11:32:44;;;;;;;2.72;1.60;;;19.30;27.20;;;;;;5015709;28;20547;-48
2023/03/26 11:35:25;;;;;;;3.55;1.85;;;18.50;27.30;;;;;;5015626;28;20206;-50
2023/03/26 11:37:57;;;;;;;3.85;1.40;;;18.50;27.40;;;;;;5015383;28;20709;-48
2023/03/26 11:40:27;;;;;;;6.75;1.92;;;18.30;27.50;;;;;;5015698;28;20190;-48
2023/03/26 11:43:06;;;;;;;4.10;2.08;;;18.30;27.80;;;;;;5015819;28;20174;-51
2023/03/26 11:45:36;;;;;;;12.15;2.90;;;18.30;27.90;;;;;;5015730;28;20179;-48
2023/03/26 11:48:02;;;;;;;2.95;1.65;;;18.20;27.90;;;;;;5015745;28;20194;-49
2023/03/26 11:50:32;;;;;;;4.60;1.60;;;18.00;28.20;;;;;;5015572;28;20782;-51
2023/03/26 11:53:11;;;;;;;4.20;1.83;;;17.80;27.70;;;;;;5015606;28;20632;-51
2023/03/26 11:55:41;;;;;;;2.85;1.92;;;17.80;28.20;;;;;;5015924;28;20183;-49
2023/03/26 11:58:28;;;;;;;4.50;1.88;;;17.80;29.10;;;;;;5015870;28;20202;-52
2023/03/26 12:00:55;;;;;;;2.75;1.45;;;17.80;29.40;;;;;;5015588;28;20162;-49
2023/03/26 12:03:20;;;;;;;5.38;2.30;;;18.00;29.50;;;;;;5015304;28;20245;-52
2023/03/26 12:05:50;;;;;;;5.00;2.00;;;18.00;29.30;;;;;;5015447;28;20638;-52
2023/03/26 12:08:27;;;;;;;5.05;2.33;;;18.10;29.40;;;;;;5014909;28;20190;-51
2023/03/26 12:11:03;;;;;;;3.53;1.60;;;18.20;28.70;;;;;;5015200;28;20159;-49
2023/03/26 12:13:36;;;;;;;3.97;1.83;;;18.10;27.70;;;;;;5015019;28;20182;-52
2023/03/26 12:16:14;;;;;;;5.10;2.05;;;18.00;28.70;;;;;;5015090;28;20166;-49
2023/03/26 12:18:42;;;;;;;4.05;1.80;;;17.90;29.00;;;;;;5014900;28;20726;-50
2023/03/26 12:21:18;;;;;;;5.28;2.00;;;17.90;29.40;;;;;;5014951;28;20182;-52
2023/03/26 12:24:00;;;;;;;9.82;2.58;;;17.90;29.40;;;;;;5014949;28;20167;-50
2023/03/26 12:26:40;;;;;;;4.55;1.90;;;17.90;29.20;;;;;;5013547;28;20642;-52
2023/03/26 12:29:11;;;;;;;3.65;1.63;;;17.90;28.20;;;;;;5014575;28;20197;-49
2023/03/26 12:32:05;;;;;;;2.50;1.70;;;17.70;28.40;;;;;;5014881;28;20191;-51
2023/03/26 12:34:35;;;;;;;6.20;2.60;;;17.70;28.70;;;;;;5014545;28;20219;-50
2023/03/26 12:37:03;;;;;;;3.22;1.40;;;17.70;28.70;;;;;;5013383;28;20194;-50
2023/03/26 12:39:38;;;;;;;3.03;1.52;;;17.70;28.30;;;;;;5014552;28;20606;-49
2023/03/26 12:42:22;;;;;;;4.00;1.67;;;17.70;27.50;;;;;;5014756;28;20674;-51
2023/03/26 12:44:51;;;;;;;4.20;1.92;;;17.60;28.40;;;;;;5014464;28;20783;-48
2023/03/26 12:47:24;;;;;;;3.38;1.60;;;17.70;28.90;;;;;;5014126;28;20175;-49
2023/03/26 12:49:51;;;;;;;2.42;1.70;;;17.80;29.30;;;;;;5014560;28;20158;-52
2023/03/26 12:52:29;;;;;;;6.82;2.10;;;17.80;28.70;;;;;;5014313;28;20199;-49
2023/03/26 12:55:20;;;;;;;3.17;1.67;;;17.80;27.90;;;;;;5014252;28;20198;-49
2023/03/26 12:58:15;;;;;;;5.13;1.60;;;17.80;28.10;;;;;;5013997;28;20199;-52
2023/03/26 13:01:01;;;;;;;3.83;1.83;;;17.80;28.40;;;;;;5011466;28;20190;-50
2023/03/26 13:03:56;;;;;;;3.78;1.63;;;17.80;29.30;;;;;;5014117;28;20208;-52
2023/03/26 13:06:34;;;;;;;7.47;2.42;;;17.90;29.60;;;;;;5013811;28;20182;-50
2023/03/26 13:09:24;;;;;;;4.50;2.35;;;17.90;29.60;;;;;;5013976;28;20202;-50
2023/03/26 13:12:01;;;;;;;3.35;1.60;;;18.00;29.20;;;;;;5014020;28;20232;-50
2023/03/26 13:14:34;;;;;;;6.32;2.20;;;18.00;29.10;;;;;;5013784;28;20709;-50
2023/03/26 13:17:29;;;;;;;3.65;2.00;;;18.00;29.50;;;;;;5013751;28;20167;-50
2023/03/26 13:20:31;;;;;;;2.33;1.40;;;18.00;30.10;;;;;;5013848;28;20627;-49
2023/03/26 13:23:06;;;;;;;2.83;2.15;;;18.10;29.50;;;;;;5014004;28;20178;-49